Time;durP1;ratioP1;P1;durP2;ratioP2;P2;SDS_P1;SDS_P2;PMS_P1;PMS_P2;Temp;Humidity;BMP_temperature;BMP_pressure;BME280_temperature;BME280_humidity;BME280_pressure;Samples;Min_cycle;Max_cycle;Signal;HPM_P1;HPM_P2
2022/05/20 00:02:07;;;;;;;8.02;5.55;;;14.10;99.90;;;;;;5022881;28;20041;-70
2022/05/20 00:04:33;;;;;;;6.25;5.25;;;14.10;99.90;;;;;;5024195;28;20054;-70
2022/05/20 00:06:58;;;;;;;6.20;5.22;;;14.10;99.90;;;;;;5024355;28;20045;-70
2022/05/20 00:09:24;;;;;;;8.60;5.13;;;14.10;99.90;;;;;;5024265;28;20045;-70
2022/05/20 00:11:50;;;;;;;7.90;6.07;;;14.00;99.90;;;;;;5023923;28;20041;-69
2022/05/20 00:14:18;;;;;;;6.60;6.00;;;14.00;99.90;;;;;;5023785;28;20470;-69
2022/05/20 00:16:44;;;;;;;6.78;5.80;;;14.00;99.90;;;;;;5024307;28;20037;-70
2022/05/20 00:19:09;;;;;;;11.27;7.13;;;14.00;99.90;;;;;;5021902;28;20056;-70
2022/05/20 00:21:35;;;;;;;10.30;7.75;;;14.00;99.90;;;;;;5024214;28;20115;-70
2022/05/20 00:24:02;;;;;;;9.32;7.43;;;14.00;99.90;;;;;;5023663;28;20084;-70
2022/05/20 00:26:28;;;;;;;9.77;7.70;;;13.90;99.90;;;;;;5022425;28;20041;-70
2022/05/20 00:28:54;;;;;;;8.57;7.22;;;13.90;99.90;;;;;;5022186;28;20045;-70
2022/05/20 00:31:22;;;;;;;9.95;7.88;;;13.80;99.90;;;;;;5023705;28;20482;-70
2022/05/20 00:33:48;;;;;;;10.10;8.20;;;13.80;99.90;;;;;;5022583;28;20141;-70
2022/05/20 00:36:13;;;;;;;9.20;8.23;;;13.70;99.90;;;;;;5023645;28;20228;-70
2022/05/20 00:38:40;;;;;;;12.15;8.90;;;13.70;99.90;;;;;;5024316;28;20559;-70
2022/05/20 00:41:07;;;;;;;13.35;9.57;;;13.60;99.90;;;;;;5022855;28;20529;-70
2022/05/20 00:43:37;;;;;;;11.30;9.48;;;13.50;99.90;;;;;;5023544;28;20128;-70
2022/05/20 00:46:06;;;;;;;10.55;9.57;;;13.50;99.90;;;;;;5021563;28;20053;-70
2022/05/20 00:48:32;;;;;;;11.10;9.50;;;13.40;99.90;;;;;;5025037;28;20038;-70
2022/05/20 00:51:08;;;;;;;11.85;9.25;;;13.40;99.90;;;;;;5023437;28;20480;-70
2022/05/20 00:53:41;;;;;;;15.63;8.95;;;13.30;99.90;;;;;;5024272;28;20037;-70
2022/05/20 00:56:11;;;;;;;14.32;9.80;;;13.30;99.90;;;;;;5023041;28;20510;-69
2022/05/20 00:58:37;;;;;;;9.65;8.68;;;13.20;99.90;;;;;;5024085;28;20121;-69
2022/05/20 01:01:05;;;;;;;10.05;8.98;;;12.40;99.90;;;;;;5023003;28;20525;-69
2022/05/20 01:03:30;;;;;;;10.95;8.93;;;13.20;99.90;;;;;;5021931;28;20047;-69
2022/05/20 01:05:58;;;;;;;12.65;8.32;;;13.10;99.90;;;;;;5023782;28;20431;-69
2022/05/20 01:08:29;;;;;;;10.60;8.50;;;13.10;99.90;;;;;;5021215;28;20062;-70
2022/05/20 01:10:56;;;;;;;12.65;9.10;;;13.10;99.90;;;;;;5022581;28;20042;-69
2022/05/20 01:13:27;;;;;;;12.35;8.93;;;13.00;99.90;;;;;;5023372;28;20045;-69
2022/05/20 01:15:54;;;;;;;17.65;8.40;;;13.00;99.90;;;;;;5023417;28;20055;-69
2022/05/20 01:18:20;;;;;;;10.43;9.23;;;13.00;99.90;;;;;;5022036;28;20065;-69
2022/05/20 01:20:51;;;;;;;12.77;9.90;;;12.90;99.90;;;;;;5021795;28;20077;-69
2022/05/20 01:23:19;;;;;;;15.93;9.82;;;12.80;99.90;;;;;;5021894;28;20172;-69
2022/05/20 01:25:48;;;;;;;12.77;10.13;;;12.80;99.90;;;;;;5022055;28;20076;-69
2022/05/20 01:28:16;;;;;;;14.40;9.90;;;12.80;99.90;;;;;;5036814;28;20052;-69
2022/05/20 01:30:52;;;;;;;18.42;9.20;;;12.70;99.90;;;;;;5018714;28;20128;-69
2022/05/20 01:33:34;;;;;;;12.30;10.25;;;12.70;99.90;;;;;;5022401;28;20045;-69
2022/05/20 01:36:02;;;;;;;12.30;9.63;;;12.60;99.90;;;;;;5022833;28;20510;-69
2022/05/20 01:38:28;;;;;;;10.98;9.63;;;12.50;99.90;;;;;;5023481;28;20041;-69
2022/05/20 01:41:01;;;;;;;18.50;10.57;;;12.50;99.90;;;;;;5023903;28;20635;-69
2022/05/20 01:43:50;;;;;;;12.10;9.93;;;12.50;99.90;;;;;;5026437;28;20046;-69
2022/05/20 01:46:28;;;;;;;11.77;9.98;;;12.40;99.90;;;;;;5024802;28;20054;-69
2022/05/20 01:49:14;;;;;;;10.07;8.88;;;12.40;99.90;;;;;;5026152;28;20049;-69
2022/05/20 01:52:05;;;;;;;11.07;9.88;;;12.40;99.90;;;;;;5026273;28;20096;-69
2022/05/20 01:54:56;;;;;;;10.13;9.07;;;12.40;99.90;;;;;;5025516;28;20496;-69
2022/05/20 01:58:01;;;;;;;10.82;9.70;;;12.30;99.90;;;;;;5024803;28;20110;-69
2022/05/20 02:00:29;;;;;;;11.88;9.32;;;12.20;99.90;;;;;;5025315;28;20057;-69
2022/05/20 02:03:11;;;;;;;10.02;8.57;;;12.20;99.90;;;;;;5026893;28;20046;-69
2022/05/20 02:05:47;;;;;;;9.20;8.30;;;12.20;99.90;;;;;;5027646;28;20043;-69
2022/05/20 02:08:31;;;;;;;10.07;7.80;;;12.50;99.90;;;;;;5026266;28;20391;-69
2022/05/20 02:11:11;;;;;;;8.52;7.70;;;12.10;99.90;;;;;;5024087;28;20543;-69
2022/05/20 02:13:41;;;;;;;8.10;7.25;;;12.10;99.90;;;;;;5026964;28;20112;-69
2022/05/20 02:16:12;;;;;;;9.65;7.35;;;12.00;99.90;;;;;;5024204;28;20049;-69
2022/05/20 02:19:03;;;;;;;8.55;7.60;;;11.90;99.90;;;;;;5026644;28;20050;-69
2022/05/20 02:21:32;;;;;;;8.43;7.28;;;11.90;99.90;;;;;;5026948;28;20045;-69
2022/05/20 02:24:02;;;;;;;9.35;8.43;;;11.90;99.90;;;;;;5025915;28;20064;-69
2022/05/20 02:26:33;;;;;;;10.10;8.85;;;11.90;99.90;;;;;;5024401;28;20555;-69
2022/05/20 02:29:03;;;;;;;9.20;8.40;;;11.80;99.90;;;;;;5026036;28;20041;-69
2022/05/20 02:31:54;;;;;;;11.77;9.13;;;11.80;99.90;;;;;;5025774;28;20046;-69
2022/05/20 02:34:20;;;;;;;10.07;9.07;;;11.80;99.90;;;;;;5025682;28;20075;-69
2022/05/20 02:36:46;;;;;;;11.00;8.35;;;11.90;99.90;;;;;;5026706;28;20085;-69
2022/05/20 02:39:18;;;;;;;10.95;9.10;;;11.90;99.90;;;;;;5024595;28;20133;-69
2022/05/20 02:41:48;;;;;;;10.45;8.27;;;11.80;99.90;;;;;;5022631;28;20077;-68
2022/05/20 02:44:14;;;;;;;9.90;8.45;;;11.90;99.90;;;;;;5025480;28;20087;-69
2022/05/20 02:46:42;;;;;;;13.20;9.32;;;11.90;99.90;;;;;;5024562;28;20046;-69
2022/05/20 02:49:08;;;;;;;8.95;7.97;;;11.80;99.90;;;;;;5024096;28;20057;-69
2022/05/20 02:51:34;;;;;;;12.20;9.57;;;11.80;99.90;;;;;;5026317;28;20120;-69
2022/05/20 02:53:59;;;;;;;9.88;8.55;;;11.80;99.90;;;;;;5024106;28;20365;-69
2022/05/20 02:56:25;;;;;;;12.98;9.70;;;11.80;99.90;;;;;;5025421;28;20444;-68
2022/05/20 03:04:20;;;;;;;11.80;8.70;;;11.80;99.90;;;;;;5024419;28;20053;-69
2022/05/20 03:06:51;;;;;;;16.85;9.57;;;11.80;99.90;;;;;;5025645;28;20049;-69
2022/05/20 03:09:19;;;;;;;12.02;9.35;;;12.30;99.90;;;;;;5024672;28;20048;-69
2022/05/20 03:11:45;;;;;;;12.43;9.60;;;11.80;99.90;;;;;;5025674;28;20466;-69
2022/05/20 03:14:13;;;;;;;17.02;9.73;;;11.80;99.90;;;;;;5022647;28;20049;-69
2022/05/20 03:16:39;;;;;;;13.85;9.63;;;11.80;99.90;;;;;;5025299;28;20041;-69
2022/05/20 03:19:05;;;;;;;12.98;10.45;;;11.80;99.90;;;;;;5024405;28;20042;-69
2022/05/20 03:21:33;;;;;;;12.57;9.48;;;11.80;99.90;;;;;;5025123;28;20041;-69
2022/05/20 03:24:02;;;;;;;12.52;10.60;;;11.80;99.90;;;;;;5025283;28;20044;-69
2022/05/20 03:26:29;;;;;;;11.02;9.73;;;11.80;99.90;;;;;;5025509;28;20128;-69
2022/05/20 03:28:55;;;;;;;12.70;10.20;;;11.80;99.90;;;;;;5024791;28;20047;-69
2022/05/20 03:31:20;;;;;;;10.85;9.77;;;11.80;99.90;;;;;;5024525;28;20049;-69
2022/05/20 03:33:46;;;;;;;11.48;9.50;;;11.80;99.90;;;;;;5025712;28;20056;-69
2022/05/20 03:36:13;;;;;;;14.02;10.27;;;11.70;99.90;;;;;;5023670;28;20056;-69
2022/05/20 03:38:38;;;;;;;15.65;11.10;;;11.60;99.90;;;;;;5025820;28;20053;-69
2022/05/20 03:41:04;;;;;;;15.48;11.50;;;11.60;99.90;;;;;;5023184;28;20045;-69
2022/05/20 03:43:30;;;;;;;16.42;12.20;;;11.60;99.90;;;;;;5024174;28;20465;-68
2022/05/20 03:45:55;;;;;;;15.10;9.80;;;11.60;99.90;;;;;;5025049;28;20091;-69
2022/05/20 03:48:22;;;;;;;11.52;10.43;;;11.70;99.90;;;;;;5023703;28;20121;-69
2022/05/20 03:50:48;;;;;;;14.98;10.82;;;11.60;99.90;;;;;;5022723;28;20043;-68
2022/05/20 03:53:14;;;;;;;12.77;10.55;;;11.60;99.90;;;;;;5023839;28;20038;-69
2022/05/20 03:55:40;;;;;;;12.65;10.75;;;11.60;99.90;;;;;;5022376;28;20045;-69
2022/05/20 03:58:06;;;;;;;15.48;10.65;;;11.60;99.90;;;;;;5023944;28;20140;-69
2022/05/20 04:01:56;;;;;;;11.48;10.27;;;11.60;99.90;;;;;;5023653;28;20143;-69
2022/05/20 04:03:18;;;;;;;11.98;10.55;;;11.50;99.90;;;;;;5022001;28;20054;-69
2022/05/20 04:05:44;;;;;;;31.30;10.75;;;11.50;99.90;;;;;;5024862;28;20120;-69
2022/05/20 04:08:10;;;;;;;26.80;10.30;;;11.60;99.90;;;;;;5023494;28;20065;-69
2022/05/20 04:10:36;;;;;;;14.35;10.35;;;11.60;99.90;;;;;;5023889;28;20085;-69
2022/05/20 04:13:02;;;;;;;13.75;10.23;;;11.60;99.90;;;;;;5024395;28;20037;-69
2022/05/20 04:15:28;;;;;;;13.27;10.90;;;11.60;99.90;;;;;;5024768;28;20041;-69
2022/05/20 04:17:53;;;;;;;10.15;9.18;;;11.60;99.90;;;;;;5023944;28;20046;-69
2022/05/20 04:20:19;;;;;;;11.13;9.70;;;11.70;99.90;;;;;;5023905;28;20055;-68
2022/05/20 04:22:45;;;;;;;13.13;10.55;;;11.70;99.90;;;;;;5024561;28;20402;-69
2022/05/20 04:25:12;;;;;;;12.77;10.23;;;11.70;99.90;;;;;;5023131;28;20072;-69
2022/05/20 04:27:38;;;;;;;11.85;10.00;;;11.80;99.90;;;;;;5022691;28;20431;-69
2022/05/20 04:30:05;;;;;;;10.75;9.75;;;11.70;99.90;;;;;;5023196;28;20081;-69
2022/05/20 04:32:31;;;;;;;10.38;9.27;;;11.70;99.90;;;;;;5023735;28;20095;-69
2022/05/20 04:34:57;;;;;;;15.50;9.77;;;11.70;99.90;;;;;;5023110;28;20049;-69
2022/05/20 04:37:26;;;;;;;10.30;9.20;;;11.70;99.90;;;;;;5024825;28;20037;-69
2022/05/20 04:39:51;;;;;;;11.90;10.20;;;11.70;99.90;;;;;;5023191;28;20091;-69
2022/05/20 04:47:50;;;;;;;11.43;10.23;;;11.80;99.90;;;;;;5021131;28;20045;-69
2022/05/20 04:50:15;;;;;;;11.75;9.82;;;11.80;99.90;;;;;;5024009;28;20056;-69
2022/05/20 04:52:41;;;;;;;12.02;10.45;;;11.80;99.90;;;;;;5024368;28;20076;-69
2022/05/20 04:55:08;;;;;;;14.02;9.48;;;11.80;99.90;;;;;;5022862;28;20045;-69
2022/05/20 04:57:35;;;;;;;11.73;9.05;;;11.80;99.90;;;;;;5023689;28;20048;-69
2022/05/20 05:00:26;;;;;;;10.23;8.52;;;11.80;99.90;;;;;;5022775;28;20127;-69
2022/05/20 05:02:52;;;;;;;10.00;8.70;;;11.80;99.90;;;;;;5023519;28;20176;-69
2022/05/20 05:05:20;;;;;;;9.57;8.68;;;11.90;99.90;;;;;;5023698;28;20059;-69
2022/05/20 05:07:49;;;;;;;8.50;7.70;;;11.80;99.90;;;;;;5022091;28;20096;-69
2022/05/20 05:10:19;;;;;;;9.60;8.70;;;11.90;99.90;;;;;;5022153;28;20060;-69
2022/05/20 05:12:51;;;;;;;9.77;8.55;;;11.90;99.90;;;;;;5024435;28;20908;-69
2022/05/20 05:15:17;;;;;;;8.55;7.80;;;11.90;99.90;;;;;;5023263;28;20418;-69
2022/05/20 05:20:29;;;;;;;10.02;8.10;;;11.90;99.90;;;;;;5026369;28;20298;-69
2022/05/20 05:22:56;;;;;;;8.75;7.85;;;11.80;99.90;;;;;;5026526;28;20531;-69
2022/05/20 05:25:24;;;;;;;18.38;8.45;;;11.90;99.90;;;;;;5026298;28;20492;-69
2022/05/20 05:27:50;;;;;;;14.80;8.63;;;13.60;99.90;;;;;;5024713;28;20037;-69
2022/05/20 05:30:17;;;;;;;9.95;8.95;;;12.00;99.90;;;;;;5025054;28;20084;-69
2022/05/20 05:32:43;;;;;;;10.73;9.65;;;12.00;99.90;;;;;;5026307;28;20071;-69
2022/05/20 05:35:12;;;;;;;11.43;10.25;;;12.10;99.90;;;;;;5025187;28;20415;-69
2022/05/20 05:37:39;;;;;;;11.38;10.10;;;12.10;99.90;;;;;;5025984;28;20045;-69
2022/05/20 05:40:07;;;;;;;10.27;9.30;;;12.20;99.90;;;;;;5026357;28;20120;-69
2022/05/20 05:42:33;;;;;;;12.05;10.85;;;12.30;99.90;;;;;;5022925;28;20045;-69
2022/05/20 05:45:03;;;;;;;12.55;11.20;;;12.30;99.90;;;;;;5025707;28;20041;-69
2022/05/20 05:47:29;;;;;;;11.90;10.70;;;12.40;99.90;;;;;;5022011;28;20056;-69
2022/05/20 05:49:54;;;;;;;11.82;10.60;;;12.50;99.90;;;;;;5025890;28;20041;-69
2022/05/20 05:52:20;;;;;;;16.63;11.23;;;12.50;99.90;;;;;;5025691;28;20812;-69
2022/05/20 05:54:45;;;;;;;13.55;10.52;;;12.60;99.90;;;;;;5027044;28;20398;-69
2022/05/20 05:57:11;;;;;;;16.15;12.13;;;12.70;99.90;;;;;;5025794;28;20376;-69
2022/05/20 05:59:40;;;;;;;14.05;11.68;;;12.80;99.90;;;;;;5025336;28;20506;-69
2022/05/20 06:02:08;;;;;;;18.48;11.23;;;12.90;99.90;;;;;;5026181;28;20184;-69
2022/05/20 06:04:34;;;;;;;12.40;10.45;;;13.00;99.90;;;;;;5025999;28;20054;-69
2022/05/20 06:07:00;;;;;;;23.95;11.60;;;13.00;99.90;;;;;;5027354;28;20048;-69
2022/05/20 06:09:26;;;;;;;13.18;9.95;;;13.40;99.90;;;;;;5026528;28;20396;-69
2022/05/20 06:11:52;;;;;;;13.35;9.68;;;13.20;99.90;;;;;;5026605;28;20106;-69
2022/05/20 06:14:18;;;;;;;11.40;9.75;;;13.30;99.90;;;;;;5024713;28;20523;-69
2022/05/20 06:16:44;;;;;;;10.63;8.90;;;13.30;99.90;;;;;;5025413;28;20096;-69
2022/05/20 06:19:10;;;;;;;13.63;8.82;;;13.40;99.90;;;;;;5026142;28;20474;-69
2022/05/20 06:21:37;;;;;;;12.23;9.13;;;13.50;99.90;;;;;;5026141;28;20056;-69
2022/05/20 06:24:04;;;;;;;12.80;8.88;;;13.60;99.90;;;;;;5025597;28;20041;-69
2022/05/20 06:26:30;;;;;;;11.82;8.63;;;13.70;99.90;;;;;;5026084;28;20037;-69
2022/05/20 06:28:56;;;;;;;12.13;8.13;;;13.80;99.90;;;;;;5026143;28;20045;-69
2022/05/20 06:31:21;;;;;;;11.32;9.23;;;13.90;99.90;;;;;;5023934;28;20046;-69
2022/05/20 06:33:47;;;;;;;13.52;9.70;;;14.00;99.90;;;;;;5024790;28;20042;-69
2022/05/20 06:41:44;;;;;;;10.65;7.50;;;14.50;99.90;;;;;;5039094;28;20128;-69
2022/05/20 06:44:10;;;;;;;11.63;8.32;;;14.40;99.90;;;;;;5024498;28;21486;-69
2022/05/20 06:46:35;;;;;;;13.93;8.05;;;14.40;99.90;;;;;;5030695;28;20557;-70
2022/05/20 06:49:02;;;;;;;7.82;6.90;;;14.40;99.90;;;;;;5027230;28;20564;-69
2022/05/20 06:51:30;;;;;;;13.77;8.07;;;14.30;99.90;;;;;;5006981;28;20056;-69
2022/05/20 06:53:58;;;;;;;12.95;6.60;;;14.40;99.90;;;;;;5016997;28;20053;-69
2022/05/20 06:56:26;;;;;;;10.32;8.07;;;14.30;99.90;;;;;;5019490;28;20060;-69
2022/05/20 06:58:52;;;;;;;12.13;8.38;;;14.40;99.90;;;;;;5026497;28;20076;-69
2022/05/20 07:01:18;;;;;;;9.82;8.50;;;14.40;99.90;;;;;;5024754;28;20095;-69
2022/05/20 07:03:44;;;;;;;12.02;9.57;;;14.40;99.90;;;;;;5026504;28;20085;-69
2022/05/20 07:06:11;;;;;;;11.30;8.80;;;14.40;99.90;;;;;;5023937;28;20063;-69
2022/05/20 07:08:38;;;;;;;11.18;8.82;;;14.50;99.90;;;;;;5026503;28;20049;-68
2022/05/20 07:11:04;;;;;;;9.95;8.85;;;14.50;99.90;;;;;;5023023;28;20053;-68
2022/05/20 07:13:30;;;;;;;11.15;7.68;;;14.50;99.90;;;;;;5026001;28;20122;-68
2022/05/20 07:15:57;;;;;;;17.20;9.27;;;14.60;99.90;;;;;;5024625;28;20103;-68
2022/05/20 07:18:27;;;;;;;13.77;8.70;;;14.60;99.90;;;;;;5024477;28;20267;-69
2022/05/20 07:20:56;;;;;;;9.70;7.93;;;14.50;99.90;;;;;;5026677;28;20268;-72
2022/05/20 07:23:28;;;;;;;11.57;7.55;;;14.60;99.90;;;;;;5025273;28;20041;-72
2022/05/20 07:25:54;;;;;;;;;;;14.60;99.90;;;;;;5021735;28;20077;-77
2022/05/20 07:28:19;;;;;;;10.40;7.05;;;14.50;99.90;;;;;;5025212;28;20395;-71
2022/05/20 07:30:45;;;;;;;8.27;5.78;;;14.50;99.90;;;;;;5027345;28;20041;-68
2022/05/20 07:33:11;;;;;;;6.07;4.95;;;14.60;99.90;;;;;;5025337;28;20087;-70
2022/05/20 07:35:40;;;;;;;8.52;4.90;;;14.70;99.90;;;;;;5023241;28;20083;-71
2022/05/20 07:38:07;;;;;;;8.68;5.97;;;14.90;99.90;;;;;;5006811;28;20030;-71
2022/05/20 07:40:33;;;;;;;9.77;4.55;;;15.00;99.90;;;;;;5008438;28;20087;-71
2022/05/20 07:42:58;;;;;;;9.35;4.75;;;15.20;99.90;;;;;;5007098;28;20490;-70
2022/05/20 07:45:24;;;;;;;7.68;3.83;;;15.30;99.90;;;;;;5019834;28;20602;-70
2022/05/20 07:47:50;;;;;;;8.45;4.78;;;15.40;99.90;;;;;;5021459;28;20045;-70
2022/05/20 07:50:22;;;;;;;9.80;4.95;;;15.50;99.90;;;;;;5034648;28;20053;-71
2022/05/20 07:55:42;;;;;;;7.25;4.70;;;15.60;99.90;;;;;;5031592;28;20048;-70
2022/05/20 07:58:11;;;;;;;10.80;5.03;;;15.70;99.90;;;;;;5027193;28;20769;-70
2022/05/20 08:00:37;;;;;;;12.18;4.93;;;15.60;99.90;;;;;;5029970;28;20188;-69
2022/05/20 08:03:04;;;;;;;6.68;4.15;;;15.50;99.90;;;;;;5025390;28;20077;-68
2022/05/20 08:05:30;;;;;;;6.60;4.75;;;15.40;99.90;;;;;;5024853;28;20045;-69
2022/05/20 08:08:02;;;;;;;9.68;5.10;;;15.40;99.90;;;;;;5025166;28;20503;-69
2022/05/20 08:10:30;;;;;;;7.72;4.80;;;15.40;99.90;;;;;;5022157;28;20076;-68
2022/05/20 08:12:59;;;;;;;5.50;4.80;;;15.50;99.90;;;;;;5014443;28;20038;-68
2022/05/20 08:15:26;;;;;;;6.75;4.60;;;15.70;99.90;;;;;;5017410;28;20045;-69
2022/05/20 08:17:51;;;;;;;5.55;4.22;;;15.80;99.90;;;;;;5013040;28;20045;-70
2022/05/20 08:20:25;;;;;;;7.68;4.38;;;15.90;99.90;;;;;;5019021;28;20465;-71
2022/05/20 08:22:55;;;;;;;7.15;4.07;;;16.00;99.90;;;;;;5015791;28;20392;-70
2022/05/20 08:25:24;;;;;;;6.97;3.70;;;16.10;99.90;;;;;;5011168;28;20492;-71
2022/05/20 08:27:49;;;;;;;5.20;2.85;;;16.10;99.90;;;;;;5028071;28;20484;-71
2022/05/20 08:30:24;;;;;;;5.38;2.63;;;16.20;99.90;;;;;;5023859;28;20053;-71
2022/05/20 08:32:50;;;;;;;4.50;2.50;;;16.30;99.90;;;;;;5020298;28;20056;-71
2022/05/20 08:35:17;;;;;;;4.68;2.50;;;16.30;99.90;;;;;;5022796;28;20511;-70
2022/05/20 08:37:45;;;;;;;4.38;2.97;;;16.30;99.90;;;;;;5023403;28;20037;-71
2022/05/20 08:40:23;;;;;;;6.88;3.17;;;16.30;99.90;;;;;;5024474;28;20048;-71
2022/05/20 08:42:51;;;;;;;4.00;3.05;;;16.40;99.90;;;;;;5023910;28;20041;-71
2022/05/20 08:45:20;;;;;;;10.20;3.90;;;17.20;99.90;;;;;;5023687;28;20041;-72
2022/05/20 08:47:48;;;;;;;9.48;3.35;;;16.60;99.90;;;;;;5018404;28;20045;-71
2022/05/20 08:50:21;;;;;;;6.45;3.55;;;16.70;99.90;;;;;;5018829;28;20112;-71
2022/05/20 08:52:50;;;;;;;5.28;3.30;;;16.80;99.90;;;;;;5009517;28;20042;-71
2022/05/20 08:55:16;;;;;;;6.22;3.40;;;16.80;99.90;;;;;;5025732;28;20067;-71
2022/05/20 08:57:51;;;;;;;4.68;3.00;;;16.80;99.90;;;;;;5019947;28;20049;-72
2022/05/20 09:00:18;;;;;;;4.97;3.50;;;16.70;99.90;;;;;;5008472;28;20108;-72
2022/05/20 09:02:44;;;;;;;8.65;3.85;;;16.80;99.90;;;;;;5006449;28;20089;-71
2022/05/20 09:05:28;;;;;;;6.03;3.30;;;16.80;99.90;;;;;;5004055;28;20081;-71
2022/05/20 09:08:06;;;;;;;6.40;3.33;;;16.90;99.90;;;;;;5008912;28;20042;-71
2022/05/20 09:10:50;;;;;;;4.80;3.17;;;17.00;99.90;;;;;;5010987;28;20557;-72
2022/05/20 09:16:24;;;;;;;4.60;3.40;;;17.10;99.90;;;;;;5005966;28;20053;-71
2022/05/20 09:19:02;;;;;;;5.57;3.33;;;17.20;99.90;;;;;;5006058;28;20503;-71
2022/05/20 09:21:33;;;;;;;3.45;2.53;;;17.20;99.90;;;;;;5014987;28;20056;-71
2022/05/20 09:24:03;;;;;;;6.07;2.92;;;17.30;99.90;;;;;;5005306;28;20088;-71
2022/05/20 09:26:47;;;;;;;4.82;3.33;;;17.30;99.90;;;;;;5004528;28;20499;-71
2022/05/20 09:29:29;;;;;;;4.00;3.47;;;17.50;99.90;;;;;;5012635;28;20041;-71
2022/05/20 09:32:00;;;;;;;6.20;3.38;;;17.40;99.90;;;;;;5021984;28;20041;-71
2022/05/20 09:34:26;;;;;;;7.70;2.75;;;18.10;99.90;;;;;;5022033;28;20064;-71
2022/05/20 09:37:05;;;;;;;3.70;2.67;;;17.40;99.90;;;;;;5023027;28;20136;-71
2022/05/20 09:39:34;;;;;;;6.97;3.53;;;17.40;99.90;;;;;;5028243;28;20037;-71
2022/05/20 09:42:09;;;;;;;4.53;2.88;;;17.40;99.90;;;;;;5022354;28;20042;-72
2022/05/20 09:44:41;;;;;;;5.32;2.55;;;17.40;99.90;;;;;;5022576;28;20121;-71
2022/05/20 09:47:31;;;;;;;6.00;2.72;;;17.80;99.90;;;;;;5023948;28;20487;-71
2022/05/20 09:50:06;;;;;;;4.40;2.55;;;17.50;99.90;;;;;;5024074;28;20144;-71
2022/05/20 09:52:59;;;;;;;6.93;3.22;;;17.50;99.90;;;;;;5024418;28;20599;-71
2022/05/20 09:55:31;;;;;;;6.88;3.22;;;17.50;99.90;;;;;;5020329;28;20049;-69
2022/05/20 09:58:11;;;;;;;;;;;17.50;99.90;;;;;;5022987;28;20120;-69
2022/05/20 10:00:37;;;;;;;4.15;2.15;;;17.60;99.90;;;;;;5016416;28;19925;-69
2022/05/20 10:03:29;;;;;;;4.88;3.45;;;17.60;99.90;;;;;;5010381;28;21754;-68
2022/05/20 10:06:18;;;;;;;4.45;3.38;;;17.70;99.90;;;;;;5013477;28;20061;-69
2022/05/20 10:08:50;;;;;;;5.35;2.90;;;17.70;99.90;;;;;;5017867;28;20119;-68
2022/05/20 10:11:31;;;;;;;3.80;3.00;;;17.60;99.90;;;;;;5016893;28;20056;-69
2022/05/20 10:14:05;;;;;;;6.30;2.83;;;17.60;99.90;;;;;;5022005;28;20038;-68
2022/05/20 10:16:33;;;;;;;4.45;3.05;;;17.50;99.90;;;;;;5020949;28;20101;-68
2022/05/20 10:19:05;;;;;;;5.80;3.28;;;17.50;99.90;;;;;;5021764;28;20048;-68
2022/05/20 10:21:52;;;;;;;3.30;2.85;;;17.40;99.90;;;;;;5026294;28;20048;-71
2022/05/20 10:24:55;;;;;;;3.63;3.20;;;17.40;99.90;;;;;;5022107;28;20045;-71
2022/05/20 10:27:36;;;;;;;5.75;3.67;;;17.50;99.90;;;;;;5022637;28;20084;-71
2022/05/20 10:32:58;;;;;;;5.22;3.17;;;17.70;99.90;;;;;;5024273;28;20057;-71
2022/05/20 10:35:53;;;;;;;3.80;3.10;;;17.70;99.90;;;;;;5025644;28;20119;-70
2022/05/20 10:38:43;;;;;;;5.55;2.95;;;17.80;99.90;;;;;;5023416;28;20080;-70
2022/05/20 10:41:31;;;;;;;5.53;3.22;;;17.80;99.90;;;;;;5026305;28;20076;-70
2022/05/20 10:50:23;;;;;;;3.58;2.50;;;17.90;99.90;;;;;;5001771;28;20091;-68
2022/05/20 10:52:54;;;;;;;4.78;3.65;;;18.00;99.90;;;;;;5025857;28;20124;-68
2022/05/20 10:55:54;;;;;;;4.25;3.08;;;18.00;99.90;;;;;;5025761;28;20049;-68
2022/05/20 10:58:51;;;;;;;5.63;3.83;;;18.00;99.90;;;;;;5024403;28;20046;-68
2022/05/20 11:01:41;;;;;;;4.63;2.67;;;18.10;99.90;;;;;;5025671;28;20057;-68
2022/05/20 11:04:22;;;;;;;3.83;2.50;;;18.10;99.90;;;;;;5028024;28;20045;-68
2022/05/20 11:07:20;;;;;;;2.97;2.57;;;18.00;99.90;;;;;;5025836;28;20077;-68
2022/05/20 11:10:01;;;;;;;3.33;2.72;;;18.00;99.90;;;;;;4968314;28;20045;-68
2022/05/20 11:13:04;;;;;;;3.63;2.60;;;18.00;99.90;;;;;;5024671;28;20053;-68
2022/05/20 11:15:51;;;;;;;7.95;3.55;;;18.10;99.90;;;;;;5021396;28;20080;-67
2022/05/20 11:18:46;;;;;;;3.55;2.95;;;18.00;99.90;;;;;;5024422;28;20041;-67
2022/05/20 11:21:33;;;;;;;6.32;2.70;;;18.00;99.90;;;;;;5019264;28;20122;-72
2022/05/20 11:24:31;;;;;;;4.35;2.58;;;18.00;99.90;;;;;;5029247;28;20068;-67
2022/05/20 11:27:26;;;;;;;6.03;2.30;;;18.10;99.90;;;;;;5027323;28;20456;-67
2022/05/20 11:30:08;;;;;;;3.95;3.15;;;18.10;99.90;;;;;;5015896;28;20057;-67
2022/05/20 11:32:36;;;;;;;;;;;18.10;99.90;;;;;;5022908;28;20045;-67
2022/05/20 11:35:36;;;;;;;3.55;2.10;;;18.20;99.90;;;;;;5024426;28;19921;-67
2022/05/20 11:38:31;;;;;;;8.30;2.72;;;18.30;99.90;;;;;;5023009;28;20048;-68
2022/05/20 11:41:42;;;;;;;3.88;2.28;;;18.40;99.90;;;;;;5019829;28;20068;-67
2022/05/20 11:44:25;;;;;;;6.90;2.65;;;18.40;99.90;;;;;;5023761;28;20455;-67
2022/05/20 11:46:57;;;;;;;6.25;2.58;;;18.60;99.90;;;;;;5032639;28;20060;-67
2022/05/20 11:49:41;;;;;;;3.75;3.08;;;18.70;99.90;;;;;;5036373;28;20181;-67
2022/05/20 11:52:34;;;;;;;5.13;3.30;;;18.60;99.90;;;;;;5023458;28;20045;-67
2022/05/20 11:55:29;;;;;;;6.45;3.25;;;18.60;99.90;;;;;;5022961;28;20472;-67
2022/05/20 11:58:02;;;;;;;6.55;2.90;;;18.60;99.90;;;;;;5024008;28;20045;-67
2022/05/20 12:00:30;;;;;;;8.00;4.20;;;18.60;99.90;;;;;;5031766;28;20109;-67
2022/05/20 12:02:59;;;;;;;6.75;3.30;;;18.60;99.90;;;;;;5030301;28;20041;-67
2022/05/20 12:05:29;;;;;;;5.80;3.38;;;18.50;99.90;;;;;;5034676;28;20053;-68
2022/05/20 12:07:55;;;;;;;3.65;2.70;;;18.60;99.90;;;;;;5036371;28;20033;-67
2022/05/20 12:10:30;;;;;;;4.53;2.88;;;18.60;99.90;;;;;;5030353;28;20098;-67
2022/05/20 12:13:26;;;;;;;5.57;3.42;;;18.60;99.90;;;;;;5024408;28;20041;-68
2022/05/20 12:16:09;;;;;;;4.60;3.70;;;18.60;99.90;;;;;;5021239;28;20045;-68
2022/05/20 12:24:41;;;;;;;5.78;3.65;;;18.60;99.90;;;;;;5023618;28;20049;-67
2022/05/20 12:27:39;;;;;;;5.15;3.45;;;18.70;99.90;;;;;;5024091;28;20041;-68
2022/05/20 12:30:17;;;;;;;3.80;2.97;;;18.80;99.90;;;;;;5017591;28;20061;-68
2022/05/20 12:32:48;;;;;;;3.72;2.90;;;18.80;99.90;;;;;;5023585;28;20039;-68
2022/05/20 12:35:28;;;;;;;4.40;3.43;;;18.90;99.90;;;;;;5024054;28;20176;-70
2022/05/20 12:38:15;;;;;;;6.45;3.33;;;19.00;99.90;;;;;;5025636;28;20049;-70
2022/05/20 12:40:40;;;;;;;5.60;3.45;;;19.20;99.90;;;;;;5026451;28;20053;-81
2022/05/20 12:43:10;;;;;;;4.97;2.97;;;19.40;99.90;;;;;;5025136;28;20506;-72
2022/05/20 12:45:50;;;;;;;7.07;3.22;;;19.50;99.90;;;;;;5026649;28;20060;-73
2022/05/20 12:48:34;;;;;;;4.05;3.25;;;19.50;99.90;;;;;;5024804;28;20050;-70
2022/05/20 12:51:04;;;;;;;4.40;3.30;;;19.40;99.90;;;;;;5018865;28;20046;-70
2022/05/20 12:53:32;;;;;;;4.97;2.78;;;19.40;99.90;;;;;;5014234;28;20120;-70
2022/05/20 12:55:58;;;;;;;3.58;2.95;;;19.20;99.90;;;;;;5012694;28;20064;-70
2022/05/20 12:58:31;;;;;;;7.93;2.95;;;19.20;99.90;;;;;;5013079;28;20081;-70
2022/05/20 13:01:01;;;;;;;4.22;2.75;;;19.10;99.90;;;;;;5015352;28;20072;-70
2022/05/20 13:03:35;;;;;;;2.97;2.67;;;19.10;99.90;;;;;;5025432;28;20080;-71
2022/05/20 13:06:20;;;;;;;5.28;2.78;;;19.20;99.90;;;;;;5023493;28;20041;-71
2022/05/20 13:08:58;;;;;;;4.00;3.22;;;19.30;99.90;;;;;;5024809;28;20083;-70
2022/05/20 13:11:24;;;;;;;2.92;2.55;;;19.30;99.90;;;;;;5022754;28;20499;-70
2022/05/20 13:13:54;;;;;;;4.38;3.05;;;19.20;99.90;;;;;;5023301;28;20038;-71
2022/05/20 13:16:21;;;;;;;5.10;3.22;;;19.20;99.90;;;;;;5023216;28;20136;-70
2022/05/20 13:19:01;;;;;;;5.25;4.30;;;19.10;99.90;;;;;;5024182;28;20041;-71
2022/05/20 13:21:28;;;;;;;4.95;4.47;;;19.00;99.90;;;;;;5023949;28;20049;-70
2022/05/20 13:23:54;;;;;;;6.30;4.82;;;18.90;99.90;;;;;;5025548;28;20056;-71
2022/05/20 13:26:31;;;;;;;5.10;4.60;;;18.90;99.90;;;;;;5022568;28;20041;-71
2022/05/20 13:29:11;;;;;;;6.13;5.20;;;18.80;99.90;;;;;;5025653;28;20534;-71
2022/05/20 13:31:37;;;;;;;6.63;5.53;;;18.80;99.90;;;;;;5021410;28;20406;-70
2022/05/20 13:34:03;;;;;;;6.72;6.13;;;18.70;99.90;;;;;;5023387;28;20042;-70
2022/05/20 13:36:37;;;;;;;8.43;6.40;;;18.70;99.90;;;;;;5022742;28;20480;-70
2022/05/20 13:39:04;;;;;;;11.27;6.75;;;18.60;99.90;;;;;;5029382;28;20622;-70
2022/05/20 13:41:32;;;;;;;6.65;6.05;;;18.60;99.90;;;;;;5029102;28;20039;-70
2022/05/20 13:44:01;;;;;;;7.45;6.72;;;18.50;99.90;;;;;;5029032;28;20049;-70
2022/05/20 13:49:17;;;;;;;7.75;6.05;;;18.40;99.90;;;;;;5027949;28;20045;-69